To NAV CANADA Home Page Login to a new session Search on AWWS site Disclaimer Vers la page française équivalente Tips FAQ What's new on the site To the Forecasts and Observations / NOTAM section To "File a Flight Plan" website Publications and other links Update of the User's profile FIC Telephone Numbers My Weather Data Folder Route Weather Data Regional Weather Data Local Weather Data To the Forecasts and Observations / NOTAM section
Request Generated 10/21/2018 at 06:11:51 UTC . Weather information available at that time is displayed.

METAR/TAF

YELLOWKNIFE/NT    

METAR CYZF 210600Z 28014G21KT 3SM -SHSN BKN006 OVC013 01/M00 A2955 RMK SC6SC2 CVCTV CLD EMBD SLP020=
SPECI CYZF 210550Z 28015G21KT 4SM -SHSN BKN008 OVC020 01/M00 A2954 RMK SC6SC2 CVCTV CLD EMBD CIG RAG SLP018=
METAR CYZF 210500Z 29011G20KT 15SM -RASN BKN009 OVC030 01/00 A2952 RMK SF5SC3 SLP011=
SPECI CYZF 210414Z 28011KT 15SM -RASN BKN008 OVC022 01/01 A2950 RMK SC5SC3 SLP003=
METAR CYZF 210400Z 28008G17KT 15SM -RASN FEW008 OVC017 01/00 A2950 RMK SC1SC7 SLP003=

TAF CYZF 210538Z 2106/2206 28010G20KT P6SM -RASN FEW008 OVC020 TEMPO
2106/2110 21/2SM -SHSN BKN008 OVC012
FM211000 33014G24KT P6SM -SN FEW006 OVC012 TEMPO 2110/2118 P6SM
NSW BKN025
FM211800 35012KT P6SM SCT020
BECMG 2120/2122 36006KT
BECMG 2202/2204 09006KT
RMK NXT FCST BY 211200Z=
Your time UTC time
Weather data provided by Environment Canada and NAV CANADA